sensor_id;sensor_type;location;lat;lon;timestamp;P1;durP1;ratioP1;P2;durP2;ratioP2
577;SDS011;275;48.492;9.214;2024-01-15T00:02:12;22.30;;;19.35;;
577;SDS011;275;48.492;9.214;2024-01-15T00:04:39;23.92;;;21.05;;
577;SDS011;275;48.492;9.214;2024-01-15T00:07:06;21.23;;;18.83;;
577;SDS011;275;48.492;9.214;2024-01-15T00:09:34;24.10;;;20.30;;
577;SDS011;275;48.492;9.214;2024-01-15T00:12:01;23.35;;;20.88;;
577;SDS011;275;48.492;9.214;2024-01-15T00:14:28;23.38;;;20.75;;
577;SDS011;275;48.492;9.214;2024-01-15T00:16:55;25.50;;;19.90;;
577;SDS011;275;48.492;9.214;2024-01-15T00:19:23;25.95;;;21.05;;
577;SDS011;275;48.492;9.214;2024-01-15T00:21:50;24.10;;;19.98;;
577;SDS011;275;48.492;9.214;2024-01-15T00:24:17;23.08;;;20.67;;
577;SDS011;275;48.492;9.214;2024-01-15T00:26:44;23.85;;;21.25;;
577;SDS011;275;48.492;9.214;2024-01-15T00:29:11;24.30;;;21.27;;
577;SDS011;275;48.492;9.214;2024-01-15T00:31:39;25.33;;;22.25;;
577;SDS011;275;48.492;9.214;2024-01-15T00:34:05;24.40;;;21.02;;
577;SDS011;275;48.492;9.214;2024-01-15T00:36:34;24.77;;;22.10;;
577;SDS011;275;48.492;9.214;2024-01-15T00:39:00;22.83;;;19.98;;
577;SDS011;275;48.492;9.214;2024-01-15T00:41:30;24.65;;;20.30;;
577;SDS011;275;48.492;9.214;2024-01-15T00:43:57;23.13;;;20.13;;
577;SDS011;275;48.492;9.214;2024-01-15T00:46:23;20.50;;;18.35;;
577;SDS011;275;48.492;9.214;2024-01-15T00:48:50;22.00;;;18.58;;
577;SDS011;275;48.492;9.214;2024-01-15T00:51:17;22.63;;;18.92;;
577;SDS011;275;48.492;9.214;2024-01-15T00:53:45;22.88;;;20.42;;
577;SDS011;275;48.492;9.214;2024-01-15T00:56:12;23.55;;;19.67;;
577;SDS011;275;48.492;9.214;2024-01-15T00:58:39;22.13;;;19.60;;
577;SDS011;275;48.492;9.214;2024-01-15T01:01:05;22.05;;;18.98;;
577;SDS011;275;48.492;9.214;2024-01-15T01:03:32;20.95;;;18.35;;
577;SDS011;275;48.492;9.214;2024-01-15T01:05:59;21.23;;;18.95;;
577;SDS011;275;48.492;9.214;2024-01-15T01:08:26;21.63;;;18.17;;
577;SDS011;275;48.492;9.214;2024-01-15T01:10:55;18.42;;;16.42;;
577;SDS011;275;48.492;9.214;2024-01-15T01:13:22;20.70;;;18.20;;
577;SDS011;275;48.492;9.214;2024-01-15T01:15:49;20.35;;;18.20;;
577;SDS011;275;48.492;9.214;2024-01-15T01:18:16;21.73;;;19.42;;
577;SDS011;275;48.492;9.214;2024-01-15T01:20:42;19.20;;;17.10;;
577;SDS011;275;48.492;9.214;2024-01-15T01:23:09;18.55;;;16.55;;
577;SDS011;275;48.492;9.214;2024-01-15T01:25:36;20.60;;;17.75;;
577;SDS011;275;48.492;9.214;2024-01-15T01:28:04;19.30;;;16.63;;
577;SDS011;275;48.492;9.214;2024-01-15T01:30:31;19.65;;;16.85;;
577;SDS011;275;48.492;9.214;2024-01-15T01:32:58;20.10;;;17.90;;
577;SDS011;275;48.492;9.214;2024-01-15T01:35:25;19.35;;;16.60;;
577;SDS011;275;48.492;9.214;2024-01-15T01:37:51;19.52;;;16.73;;
577;SDS011;275;48.492;9.214;2024-01-15T01:40:18;20.35;;;15.90;;
577;SDS011;275;48.492;9.214;2024-01-15T01:42:45;20.58;;;17.25;;
577;SDS011;275;48.492;9.214;2024-01-15T01:45:14;21.10;;;17.63;;
577;SDS011;275;48.492;9.214;2024-01-15T01:47:41;18.85;;;16.30;;
577;SDS011;275;48.492;9.214;2024-01-15T01:50:08;19.88;;;17.30;;
577;SDS011;275;48.492;9.214;2024-01-15T01:52:35;18.23;;;15.88;;
577;SDS011;275;48.492;9.214;2024-01-15T01:55:02;19.13;;;15.95;;
577;SDS011;275;48.492;9.214;2024-01-15T01:57:30;20.42;;;17.05;;
577;SDS011;275;48.492;9.214;2024-01-15T01:59:58;19.50;;;16.08;;
577;SDS011;275;48.492;9.214;2024-01-15T02:02:27;19.80;;;16.90;;
577;SDS011;275;48.492;9.214;2024-01-15T02:04:54;19.67;;;14.93;;
577;SDS011;275;48.492;9.214;2024-01-15T02:07:21;20.85;;;18.45;;
577;SDS011;275;48.492;9.214;2024-01-15T02:09:49;20.17;;;17.52;;
577;SDS011;275;48.492;9.214;2024-01-15T02:12:16;20.92;;;17.48;;
577;SDS011;275;48.492;9.214;2024-01-15T02:14:43;19.50;;;16.75;;
577;SDS011;275;48.492;9.214;2024-01-15T02:17:10;20.45;;;16.88;;
577;SDS011;275;48.492;9.214;2024-01-15T02:19:38;19.75;;;16.23;;
577;SDS011;275;48.492;9.214;2024-01-15T02:22:05;19.50;;;17.38;;
577;SDS011;275;48.492;9.214;2024-01-15T02:24:34;18.83;;;16.65;;
577;SDS011;275;48.492;9.214;2024-01-15T02:27:01;17.25;;;14.63;;
577;SDS011;275;48.492;9.214;2024-01-15T02:29:28;20.77;;;16.75;;
577;SDS011;275;48.492;9.214;2024-01-15T02:31:54;20.20;;;15.90;;
577;SDS011;275;48.492;9.214;2024-01-15T02:34:21;20.92;;;17.73;;
577;SDS011;275;48.492;9.214;2024-01-15T02:36:48;18.92;;;16.38;;
577;SDS011;275;48.492;9.214;2024-01-15T02:39:15;18.15;;;15.57;;
577;SDS011;275;48.492;9.214;2024-01-15T02:41:43;20.63;;;16.67;;
577;SDS011;275;48.492;9.214;2024-01-15T02:44:10;18.67;;;16.30;;
577;SDS011;275;48.492;9.214;2024-01-15T02:46:37;19.17;;;16.08;;
577;SDS011;275;48.492;9.214;2024-01-15T02:49:03;19.05;;;16.33;;
577;SDS011;275;48.492;9.214;2024-01-15T02:51:30;19.38;;;15.80;;
577;SDS011;275;48.492;9.214;2024-01-15T02:53:57;21.42;;;17.35;;
577;SDS011;275;48.492;9.214;2024-01-15T02:56:24;18.40;;;15.65;;
577;SDS011;275;48.492;9.214;2024-01-15T02:58:52;18.63;;;15.63;;
577;SDS011;275;48.492;9.214;2024-01-15T03:01:19;19.75;;;16.75;;
577;SDS011;275;48.492;9.214;2024-01-15T03:03:47;21.05;;;16.85;;
577;SDS011;275;48.492;9.214;2024-01-15T03:06:13;17.13;;;13.98;;
577;SDS011;275;48.492;9.214;2024-01-15T03:08:39;16.10;;;14.40;;
577;SDS011;275;48.492;9.214;2024-01-15T03:11:06;17.33;;;14.15;;
577;SDS011;275;48.492;9.214;2024-01-15T03:13:35;19.20;;;14.60;;
577;SDS011;275;48.492;9.214;2024-01-15T03:16:03;17.88;;;13.45;;
577;SDS011;275;48.492;9.214;2024-01-15T03:18:30;18.48;;;15.10;;
577;SDS011;275;48.492;9.214;2024-01-15T03:20:57;16.92;;;13.85;;
577;SDS011;275;48.492;9.214;2024-01-15T03:23:26;16.50;;;14.35;;
577;SDS011;275;48.492;9.214;2024-01-15T03:25:53;18.85;;;14.88;;
577;SDS011;275;48.492;9.214;2024-01-15T03:28:20;18.17;;;14.60;;
577;SDS011;275;48.492;9.214;2024-01-15T03:30:46;19.70;;;15.80;;
577;SDS011;275;48.492;9.214;2024-01-15T03:33:14;18.13;;;15.30;;
577;SDS011;275;48.492;9.214;2024-01-15T03:35:41;17.10;;;13.57;;
577;SDS011;275;48.492;9.214;2024-01-15T03:38:08;17.73;;;14.48;;
577;SDS011;275;48.492;9.214;2024-01-15T03:40:35;20.55;;;15.45;;
577;SDS011;275;48.492;9.214;2024-01-15T03:43:02;23.27;;;16.48;;
577;SDS011;275;48.492;9.214;2024-01-15T03:45:29;18.33;;;15.18;;
577;SDS011;275;48.492;9.214;2024-01-15T03:47:55;18.17;;;14.20;;
577;SDS011;275;48.492;9.214;2024-01-15T03:50:24;17.17;;;14.18;;
577;SDS011;275;48.492;9.214;2024-01-15T03:52:50;20.92;;;16.83;;
577;SDS011;275;48.492;9.214;2024-01-15T03:55:17;21.73;;;17.27;;
577;SDS011;275;48.492;9.214;2024-01-15T03:57:44;20.92;;;16.55;;
577;SDS011;275;48.492;9.214;2024-01-15T04:00:11;21.48;;;16.45;;
577;SDS011;275;48.492;9.214;2024-01-15T04:02:42;20.02;;;16.23;;
577;SDS011;275;48.492;9.214;2024-01-15T04:05:09;21.63;;;16.08;;
577;SDS011;275;48.492;9.214;2024-01-15T04:07:37;20.90;;;16.92;;
577;SDS011;275;48.492;9.214;2024-01-15T04:10:04;23.48;;;18.17;;
577;SDS011;275;48.492;9.214;2024-01-15T04:12:31;22.20;;;17.55;;
577;SDS011;275;48.492;9.214;2024-01-15T04:14:58;22.20;;;18.13;;
577;SDS011;275;48.492;9.214;2024-01-15T04:17:25;20.23;;;17.23;;
577;SDS011;275;48.492;9.214;2024-01-15T04:19:51;22.30;;;17.08;;
577;SDS011;275;48.492;9.214;2024-01-15T04:22:18;23.27;;;18.23;;
577;SDS011;275;48.492;9.214;2024-01-15T04:24:46;20.98;;;17.60;;
577;SDS011;275;48.492;9.214;2024-01-15T04:27:13;21.80;;;17.25;;
577;SDS011;275;48.492;9.214;2024-01-15T04:29:40;20.48;;;17.80;;
577;SDS011;275;48.492;9.214;2024-01-15T04:32:09;22.05;;;16.52;;
577;SDS011;275;48.492;9.214;2024-01-15T04:34:36;22.23;;;18.90;;
577;SDS011;275;48.492;9.214;2024-01-15T04:37:03;19.85;;;16.83;;
577;SDS011;275;48.492;9.214;2024-01-15T04:39:30;24.30;;;18.80;;
577;SDS011;275;48.492;9.214;2024-01-15T04:41:58;21.77;;;17.85;;
577;SDS011;275;48.492;9.214;2024-01-15T04:44:25;22.40;;;17.67;;
577;SDS011;275;48.492;9.214;2024-01-15T04:46:52;25.83;;;18.38;;
577;SDS011;275;48.492;9.214;2024-01-15T04:49:18;21.58;;;18.23;;
577;SDS011;275;48.492;9.214;2024-01-15T04:51:45;23.58;;;18.10;;
577;SDS011;275;48.492;9.214;2024-01-15T04:54:12;22.65;;;19.13;;
577;SDS011;275;48.492;9.214;2024-01-15T04:56:42;24.20;;;19.48;;
577;SDS011;275;48.492;9.214;2024-01-15T04:59:10;23.10;;;18.42;;
577;SDS011;275;48.492;9.214;2024-01-15T05:01:37;22.13;;;18.55;;
577;SDS011;275;48.492;9.214;2024-01-15T05:04:04;23.15;;;18.42;;
577;SDS011;275;48.492;9.214;2024-01-15T05:06:31;21.98;;;19.00;;
577;SDS011;275;48.492;9.214;2024-01-15T05:08:58;22.98;;;18.73;;
577;SDS011;275;48.492;9.214;2024-01-15T05:11:24;23.88;;;19.27;;
577;SDS011;275;48.492;9.214;2024-01-15T05:13:52;24.17;;;19.10;;
577;SDS011;275;48.492;9.214;2024-01-15T05:16:20;22.98;;;19.30;;
577;SDS011;275;48.492;9.214;2024-01-15T05:18:47;22.40;;;18.15;;
577;SDS011;275;48.492;9.214;2024-01-15T05:21:14;26.50;;;20.70;;
577;SDS011;275;48.492;9.214;2024-01-15T05:23:41;23.33;;;20.10;;
577;SDS011;275;48.492;9.214;2024-01-15T05:26:08;21.67;;;17.52;;
577;SDS011;275;48.492;9.214;2024-01-15T05:28:35;21.80;;;18.92;;
577;SDS011;275;48.492;9.214;2024-01-15T05:31:02;20.70;;;18.10;;
577;SDS011;275;48.492;9.214;2024-01-15T05:33:30;22.92;;;18.63;;
577;SDS011;275;48.492;9.214;2024-01-15T05:35:57;19.90;;;17.77;;
577;SDS011;275;48.492;9.214;2024-01-15T05:38:24;22.58;;;19.15;;
577;SDS011;275;48.492;9.214;2024-01-15T05:40:51;22.75;;;18.42;;
577;SDS011;275;48.492;9.214;2024-01-15T05:43:18;25.88;;;19.35;;
577;SDS011;275;48.492;9.214;2024-01-15T05:45:45;22.77;;;18.38;;
577;SDS011;275;48.492;9.214;2024-01-15T05:48:11;23.30;;;18.48;;
577;SDS011;275;48.492;9.214;2024-01-15T05:50:40;19.75;;;17.65;;
577;SDS011;275;48.492;9.214;2024-01-15T05:53:07;22.55;;;18.80;;
577;SDS011;275;48.492;9.214;2024-01-15T05:55:35;20.38;;;18.17;;
577;SDS011;275;48.492;9.214;2024-01-15T05:58:02;19.67;;;17.48;;
577;SDS011;275;48.492;9.214;2024-01-15T06:00:29;23.42;;;18.08;;
577;SDS011;275;48.492;9.214;2024-01-15T06:02:58;21.65;;;17.30;;
577;SDS011;275;48.492;9.214;2024-01-15T06:05:24;20.08;;;16.73;;
577;SDS011;275;48.492;9.214;2024-01-15T06:07:53;18.38;;;16.02;;
577;SDS011;275;48.492;9.214;2024-01-15T06:10:19;18.98;;;17.08;;
577;SDS011;275;48.492;9.214;2024-01-15T06:12:46;21.17;;;18.48;;
577;SDS011;275;48.492;9.214;2024-01-15T06:15:13;21.15;;;18.38;;
577;SDS011;275;48.492;9.214;2024-01-15T06:17:40;22.63;;;20.10;;
577;SDS011;275;48.492;9.214;2024-01-15T06:20:07;20.70;;;18.50;;
577;SDS011;275;48.492;9.214;2024-01-15T06:22:35;23.00;;;19.42;;
577;SDS011;275;48.492;9.214;2024-01-15T06:25:06;22.77;;;19.90;;
577;SDS011;275;48.492;9.214;2024-01-15T06:27:33;22.52;;;18.42;;
577;SDS011;275;48.492;9.214;2024-01-15T06:30:00;23.20;;;19.90;;
577;SDS011;275;48.492;9.214;2024-01-15T06:32:26;22.55;;;19.73;;
577;SDS011;275;48.492;9.214;2024-01-15T06:34:54;24.60;;;21.05;;
577;SDS011;275;48.492;9.214;2024-01-15T06:37:20;22.00;;;19.10;;
577;SDS011;275;48.492;9.214;2024-01-15T06:39:47;22.58;;;19.45;;
577;SDS011;275;48.492;9.214;2024-01-15T06:42:15;23.10;;;18.80;;
577;SDS011;275;48.492;9.214;2024-01-15T06:44:42;21.83;;;19.23;;
577;SDS011;275;48.492;9.214;2024-01-15T06:47:09;21.45;;;18.27;;
577;SDS011;275;48.492;9.214;2024-01-15T06:49:36;19.73;;;17.63;;
577;SDS011;275;48.492;9.214;2024-01-15T06:52:02;22.03;;;18.33;;
577;SDS011;275;48.492;9.214;2024-01-15T06:54:29;22.17;;;19.02;;
577;SDS011;275;48.492;9.214;2024-01-15T06:56:55;19.58;;;17.52;;
577;SDS011;275;48.492;9.214;2024-01-15T06:59:24;20.70;;;18.33;;
577;SDS011;275;48.492;9.214;2024-01-15T07:01:50;21.00;;;18.75;;
577;SDS011;275;48.492;9.214;2024-01-15T07:04:17;21.77;;;17.52;;
577;SDS011;275;48.492;9.214;2024-01-15T07:06:44;21.15;;;17.73;;
577;SDS011;275;48.492;9.214;2024-01-15T07:09:11;20.80;;;17.38;;
577;SDS011;275;48.492;9.214;2024-01-15T07:11:38;17.90;;;16.08;;
577;SDS011;275;48.492;9.214;2024-01-15T07:14:04;18.52;;;16.05;;
577;SDS011;275;48.492;9.214;2024-01-15T07:16:32;19.88;;;16.10;;
577;SDS011;275;48.492;9.214;2024-01-15T07:18:59;20.15;;;16.92;;
577;SDS011;275;48.492;9.214;2024-01-15T07:21:26;14.65;;;12.93;;
577;SDS011;275;48.492;9.214;2024-01-15T07:23:53;19.65;;;15.80;;
577;SDS011;275;48.492;9.214;2024-01-15T07:26:20;18.15;;;15.68;;
577;SDS011;275;48.492;9.214;2024-01-15T07:28:46;16.58;;;13.73;;
577;SDS011;275;48.492;9.214;2024-01-15T07:31:15;16.52;;;14.43;;
577;SDS011;275;48.492;9.214;2024-01-15T07:33:45;14.65;;;13.10;;
577;SDS011;275;48.492;9.214;2024-01-15T07:36:12;13.25;;;11.85;;
577;SDS011;275;48.492;9.214;2024-01-15T07:38:39;14.23;;;12.52;;
577;SDS011;275;48.492;9.214;2024-01-15T07:41:05;17.20;;;13.25;;
577;SDS011;275;48.492;9.214;2024-01-15T07:43:33;14.75;;;13.07;;
577;SDS011;275;48.492;9.214;2024-01-15T07:46:00;14.63;;;12.05;;
577;SDS011;275;48.492;9.214;2024-01-15T07:48:27;13.45;;;11.40;;
577;SDS011;275;48.492;9.214;2024-01-15T07:50:55;15.43;;;13.27;;
577;SDS011;275;48.492;9.214;2024-01-15T07:53:22;13.52;;;10.98;;
577;SDS011;275;48.492;9.214;2024-01-15T07:55:49;12.50;;;10.52;;
577;SDS011;275;48.492;9.214;2024-01-15T07:58:16;13.40;;;11.10;;
577;SDS011;275;48.492;9.214;2024-01-15T08:00:42;13.52;;;10.25;;
577;SDS011;275;48.492;9.214;2024-01-15T08:03:10;11.57;;;10.15;;
577;SDS011;275;48.492;9.214;2024-01-15T08:05:38;11.35;;;9.18;;
577;SDS011;275;48.492;9.214;2024-01-15T08:08:09;9.98;;;8.98;;
577;SDS011;275;48.492;9.214;2024-01-15T08:10:36;9.52;;;7.97;;
577;SDS011;275;48.492;9.214;2024-01-15T08:13:03;10.52;;;8.50;;
577;SDS011;275;48.492;9.214;2024-01-15T08:15:33;9.20;;;8.02;;
577;SDS011;275;48.492;9.214;2024-01-15T08:18:00;9.02;;;7.80;;
577;SDS011;275;48.492;9.214;2024-01-15T08:20:27;10.25;;;8.95;;
577;SDS011;275;48.492;9.214;2024-01-15T08:22:56;9.25;;;8.27;;
577;SDS011;275;48.492;9.214;2024-01-15T08:25:24;8.63;;;7.25;;
577;SDS011;275;48.492;9.214;2024-01-15T08:27:52;7.72;;;6.40;;
577;SDS011;275;48.492;9.214;2024-01-15T08:30:18;9.32;;;7.40;;
577;SDS011;275;48.492;9.214;2024-01-15T08:32:46;7.25;;;5.60;;
577;SDS011;275;48.492;9.214;2024-01-15T08:35:13;8.90;;;7.20;;
577;SDS011;275;48.492;9.214;2024-01-15T08:37:40;8.43;;;7.05;;
577;SDS011;275;48.492;9.214;2024-01-15T08:40:07;10.98;;;7.38;;
577;SDS011;275;48.492;9.214;2024-01-15T08:42:36;8.88;;;7.90;;
577;SDS011;275;48.492;9.214;2024-01-15T08:45:04;7.72;;;6.90;;
577;SDS011;275;48.492;9.214;2024-01-15T08:47:31;9.63;;;8.23;;
577;SDS011;275;48.492;9.214;2024-01-15T08:50:00;7.72;;;7.03;;
577;SDS011;275;48.492;9.214;2024-01-15T08:52:28;9.20;;;6.80;;
577;SDS011;275;48.492;9.214;2024-01-15T08:54:55;10.48;;;7.40;;
577;SDS011;275;48.492;9.214;2024-01-15T08:57:22;8.25;;;5.90;;
577;SDS011;275;48.492;9.214;2024-01-15T08:59:50;7.53;;;6.13;;
577;SDS011;275;48.492;9.214;2024-01-15T09:02:17;6.82;;;5.25;;
577;SDS011;275;48.492;9.214;2024-01-15T09:04:44;9.80;;;5.93;;
577;SDS011;275;48.492;9.214;2024-01-15T09:07:10;7.30;;;5.68;;
577;SDS011;275;48.492;9.214;2024-01-15T09:09:37;6.72;;;5.57;;
577;SDS011;275;48.492;9.214;2024-01-15T09:12:04;6.97;;;5.72;;
577;SDS011;275;48.492;9.214;2024-01-15T09:14:32;6.78;;;5.90;;
577;SDS011;275;48.492;9.214;2024-01-15T09:17:00;6.20;;;4.57;;
577;SDS011;275;48.492;9.214;2024-01-15T09:19:28;6.65;;;4.82;;
577;SDS011;275;48.492;9.214;2024-01-15T09:21:55;6.60;;;4.85;;
577;SDS011;275;48.492;9.214;2024-01-15T09:24:22;6.50;;;4.95;;
577;SDS011;275;48.492;9.214;2024-01-15T09:26:49;6.18;;;5.07;;
577;SDS011;275;48.492;9.214;2024-01-15T09:29:16;5.72;;;5.13;;
577;SDS011;275;48.492;9.214;2024-01-15T09:31:43;5.85;;;4.65;;
577;SDS011;275;48.492;9.214;2024-01-15T09:34:14;6.57;;;4.63;;
577;SDS011;275;48.492;9.214;2024-01-15T09:36:41;5.57;;;4.90;;
577;SDS011;275;48.492;9.214;2024-01-15T09:39:08;6.80;;;5.68;;
577;SDS011;275;48.492;9.214;2024-01-15T09:41:36;5.78;;;4.60;;
577;SDS011;275;48.492;9.214;2024-01-15T09:44:03;5.82;;;4.38;;
577;SDS011;275;48.492;9.214;2024-01-15T09:46:32;5.72;;;4.40;;
577;SDS011;275;48.492;9.214;2024-01-15T09:48:59;5.30;;;4.80;;
577;SDS011;275;48.492;9.214;2024-01-15T09:51:28;6.50;;;4.30;;
577;SDS011;275;48.492;9.214;2024-01-15T09:53:57;5.28;;;4.07;;
577;SDS011;275;48.492;9.214;2024-01-15T09:56:24;6.30;;;4.40;;
577;SDS011;275;48.492;9.214;2024-01-15T09:58:52;6.95;;;4.57;;
577;SDS011;275;48.492;9.214;2024-01-15T10:01:20;5.20;;;4.53;;
577;SDS011;275;48.492;9.214;2024-01-15T10:03:46;6.82;;;4.80;;
577;SDS011;275;48.492;9.214;2024-01-15T10:06:14;9.15;;;5.60;;
577;SDS011;275;48.492;9.214;2024-01-15T10:08:44;6.03;;;5.15;;
577;SDS011;275;48.492;9.214;2024-01-15T10:11:13;6.93;;;4.53;;
577;SDS011;275;48.492;9.214;2024-01-15T10:13:41;5.10;;;3.80;;
577;SDS011;275;48.492;9.214;2024-01-15T10:16:10;7.45;;;4.82;;
577;SDS011;275;48.492;9.214;2024-01-15T10:18:37;6.43;;;5.10;;
577;SDS011;275;48.492;9.214;2024-01-15T10:21:06;7.00;;;5.10;;
577;SDS011;275;48.492;9.214;2024-01-15T10:23:33;5.65;;;4.78;;
577;SDS011;275;48.492;9.214;2024-01-15T10:26:03;4.72;;;4.18;;
577;SDS011;275;48.492;9.214;2024-01-15T10:28:30;5.55;;;4.22;;
577;SDS011;275;48.492;9.214;2024-01-15T10:30:57;6.55;;;4.05;;
577;SDS011;275;48.492;9.214;2024-01-15T10:33:28;6.30;;;4.40;;
577;SDS011;275;48.492;9.214;2024-01-15T10:35:55;8.30;;;5.40;;
577;SDS011;275;48.492;9.214;2024-01-15T10:38:23;5.53;;;4.65;;
577;SDS011;275;48.492;9.214;2024-01-15T10:40:50;5.60;;;5.00;;
577;SDS011;275;48.492;9.214;2024-01-15T10:43:19;6.55;;;5.10;;
577;SDS011;275;48.492;9.214;2024-01-15T10:45:47;7.70;;;5.03;;
577;SDS011;275;48.492;9.214;2024-01-15T10:48:16;6.85;;;4.70;;
577;SDS011;275;48.492;9.214;2024-01-15T10:50:44;6.68;;;4.65;;
577;SDS011;275;48.492;9.214;2024-01-15T10:53:13;9.20;;;4.57;;
577;SDS011;275;48.492;9.214;2024-01-15T10:55:41;6.80;;;4.53;;
577;SDS011;275;48.492;9.214;2024-01-15T10:58:09;5.30;;;4.80;;
577;SDS011;275;48.492;9.214;2024-01-15T11:00:40;8.63;;;7.53;;
577;SDS011;275;48.492;9.214;2024-01-15T11:03:07;9.55;;;6.95;;
577;SDS011;275;48.492;9.214;2024-01-15T11:05:34;7.57;;;5.63;;
577;SDS011;275;48.492;9.214;2024-01-15T11:08:04;5.30;;;4.00;;
577;SDS011;275;48.492;9.214;2024-01-15T11:10:37;6.45;;;4.65;;
577;SDS011;275;48.492;9.214;2024-01-15T11:13:05;5.68;;;4.32;;
577;SDS011;275;48.492;9.214;2024-01-15T11:15:46;6.80;;;4.95;;
577;SDS011;275;48.492;9.214;2024-01-15T11:18:21;6.53;;;5.78;;
577;SDS011;275;48.492;9.214;2024-01-15T11:23:49;5.63;;;5.07;;
577;SDS011;275;48.492;9.214;2024-01-15T11:26:30;6.85;;;4.78;;
577;SDS011;275;48.492;9.214;2024-01-15T11:29:00;5.80;;;4.45;;
577;SDS011;275;48.492;9.214;2024-01-15T11:31:56;7.57;;;4.72;;
577;SDS011;275;48.492;9.214;2024-01-15T11:37:22;6.45;;;4.32;;
577;SDS011;275;48.492;9.214;2024-01-15T11:39:51;6.03;;;3.92;;
577;SDS011;275;48.492;9.214;2024-01-15T11:42:19;6.88;;;4.90;;
577;SDS011;275;48.492;9.214;2024-01-15T11:44:47;6.10;;;4.53;;
577;SDS011;275;48.492;9.214;2024-01-15T11:47:15;9.25;;;6.38;;
577;SDS011;275;48.492;9.214;2024-01-15T11:50:06;7.72;;;5.55;;
577;SDS011;275;48.492;9.214;2024-01-15T11:52:36;6.45;;;5.20;;
577;SDS011;275;48.492;9.214;2024-01-15T11:55:10;6.00;;;5.40;;
577;SDS011;275;48.492;9.214;2024-01-15T11:57:44;5.55;;;4.88;;
577;SDS011;275;48.492;9.214;2024-01-15T12:00:13;6.38;;;5.75;;
577;SDS011;275;48.492;9.214;2024-01-15T12:02:42;8.35;;;6.82;;
577;SDS011;275;48.492;9.214;2024-01-15T12:05:10;7.88;;;6.25;;
577;SDS011;275;48.492;9.214;2024-01-15T12:07:38;10.85;;;9.85;;
577;SDS011;275;48.492;9.214;2024-01-15T12:10:08;5.03;;;4.07;;
577;SDS011;275;48.492;9.214;2024-01-15T12:12:42;6.25;;;5.65;;
577;SDS011;275;48.492;9.214;2024-01-15T12:15:19;7.00;;;4.82;;
577;SDS011;275;48.492;9.214;2024-01-15T12:17:48;5.28;;;4.78;;
577;SDS011;275;48.492;9.214;2024-01-15T12:20:15;6.15;;;5.32;;
577;SDS011;275;48.492;9.214;2024-01-15T12:22:43;7.70;;;6.88;;
577;SDS011;275;48.492;9.214;2024-01-15T12:25:11;7.90;;;7.10;;
577;SDS011;275;48.492;9.214;2024-01-15T12:27:37;11.60;;;8.73;;
577;SDS011;275;48.492;9.214;2024-01-15T12:30:05;6.50;;;5.55;;
577;SDS011;275;48.492;9.214;2024-01-15T12:32:34;6.60;;;5.25;;
577;SDS011;275;48.492;9.214;2024-01-15T12:35:03;5.53;;;4.72;;
577;SDS011;275;48.492;9.214;2024-01-15T12:37:31;6.65;;;5.82;;
577;SDS011;275;48.492;9.214;2024-01-15T12:39:58;8.10;;;6.35;;
577;SDS011;275;48.492;9.214;2024-01-15T12:42:25;5.75;;;5.18;;
577;SDS011;275;48.492;9.214;2024-01-15T12:44:54;7.72;;;5.82;;
577;SDS011;275;48.492;9.214;2024-01-15T12:47:22;7.00;;;6.13;;
577;SDS011;275;48.492;9.214;2024-01-15T12:49:50;7.10;;;5.93;;
577;SDS011;275;48.492;9.214;2024-01-15T12:52:21;10.48;;;7.35;;
577;SDS011;275;48.492;9.214;2024-01-15T12:54:48;7.43;;;6.50;;
577;SDS011;275;48.492;9.214;2024-01-15T12:57:15;6.30;;;5.70;;
577;SDS011;275;48.492;9.214;2024-01-15T12:59:42;7.50;;;6.13;;
577;SDS011;275;48.492;9.214;2024-01-15T13:02:09;7.72;;;5.65;;
577;SDS011;275;48.492;9.214;2024-01-15T13:04:36;10.15;;;7.10;;
577;SDS011;275;48.492;9.214;2024-01-15T13:07:03;6.93;;;5.97;;
577;SDS011;275;48.492;9.214;2024-01-15T13:09:32;8.60;;;6.72;;
577;SDS011;275;48.492;9.214;2024-01-15T13:11:59;8.73;;;7.38;;
577;SDS011;275;48.492;9.214;2024-01-15T13:14:27;9.55;;;8.45;;
577;SDS011;275;48.492;9.214;2024-01-15T13:16:54;13.80;;;11.80;;
577;SDS011;275;48.492;9.214;2024-01-15T13:19:21;9.50;;;8.50;;
577;SDS011;275;48.492;9.214;2024-01-15T13:21:48;9.57;;;7.90;;
577;SDS011;275;48.492;9.214;2024-01-15T13:24:16;9.93;;;7.93;;
577;SDS011;275;48.492;9.214;2024-01-15T13:26:44;8.60;;;7.70;;
577;SDS011;275;48.492;9.214;2024-01-15T13:29:12;10.50;;;8.05;;
577;SDS011;275;48.492;9.214;2024-01-15T13:31:39;8.68;;;7.88;;
577;SDS011;275;48.492;9.214;2024-01-15T13:34:06;9.00;;;8.10;;
577;SDS011;275;48.492;9.214;2024-01-15T13:36:34;9.32;;;7.65;;
577;SDS011;275;48.492;9.214;2024-01-15T13:39:03;9.23;;;8.23;;
577;SDS011;275;48.492;9.214;2024-01-15T13:41:33;11.95;;;10.70;;
577;SDS011;275;48.492;9.214;2024-01-15T13:44:01;10.63;;;8.65;;
577;SDS011;275;48.492;9.214;2024-01-15T13:46:29;10.27;;;9.27;;
577;SDS011;275;48.492;9.214;2024-01-15T13:48:56;10.38;;;8.88;;
577;SDS011;275;48.492;9.214;2024-01-15T13:51:23;10.38;;;8.82;;
577;SDS011;275;48.492;9.214;2024-01-15T13:53:50;10.70;;;9.00;;
577;SDS011;275;48.492;9.214;2024-01-15T13:56:18;11.05;;;9.00;;
577;SDS011;275;48.492;9.214;2024-01-15T13:58:45;11.55;;;10.27;;
577;SDS011;275;48.492;9.214;2024-01-15T14:01:14;12.98;;;11.68;;
577;SDS011;275;48.492;9.214;2024-01-15T14:03:42;12.07;;;10.88;;
577;SDS011;275;48.492;9.214;2024-01-15T14:06:09;10.57;;;8.70;;
577;SDS011;275;48.492;9.214;2024-01-15T14:08:36;10.55;;;9.45;;
577;SDS011;275;48.492;9.214;2024-01-15T14:11:03;11.90;;;10.50;;
577;SDS011;275;48.492;9.214;2024-01-15T14:13:31;11.32;;;9.52;;
577;SDS011;275;48.492;9.214;2024-01-15T14:15:58;10.80;;;9.70;;
577;SDS011;275;48.492;9.214;2024-01-15T14:18:27;13.57;;;10.20;;
577;SDS011;275;48.492;9.214;2024-01-15T14:20:54;11.73;;;10.52;;
577;SDS011;275;48.492;9.214;2024-01-15T14:23:21;12.10;;;10.90;;
577;SDS011;275;48.492;9.214;2024-01-15T14:25:48;15.85;;;12.20;;
577;SDS011;275;48.492;9.214;2024-01-15T14:28:15;11.50;;;9.98;;
577;SDS011;275;48.492;9.214;2024-01-15T14:30:42;12.25;;;9.77;;
577;SDS011;275;48.492;9.214;2024-01-15T14:33:09;13.02;;;11.70;;
577;SDS011;275;48.492;9.214;2024-01-15T14:35:37;12.25;;;10.98;;
577;SDS011;275;48.492;9.214;2024-01-15T14:38:04;14.90;;;12.93;;
577;SDS011;275;48.492;9.214;2024-01-15T14:40:32;12.65;;;11.30;;
577;SDS011;275;48.492;9.214;2024-01-15T14:43:00;15.38;;;13.57;;
577;SDS011;275;48.492;9.214;2024-01-15T14:45:27;16.73;;;11.35;;
577;SDS011;275;48.492;9.214;2024-01-15T14:47:55;12.20;;;10.90;;
577;SDS011;275;48.492;9.214;2024-01-15T14:50:23;13.07;;;11.38;;
577;SDS011;275;48.492;9.214;2024-01-15T14:52:51;11.65;;;10.13;;
577;SDS011;275;48.492;9.214;2024-01-15T14:55:18;13.05;;;10.50;;
577;SDS011;275;48.492;9.214;2024-01-15T14:57:45;13.60;;;11.73;;
577;SDS011;275;48.492;9.214;2024-01-15T15:00:12;12.80;;;10.35;;
577;SDS011;275;48.492;9.214;2024-01-15T15:02:41;15.60;;;13.27;;
577;SDS011;275;48.492;9.214;2024-01-15T15:05:08;12.18;;;10.73;;
577;SDS011;275;48.492;9.214;2024-01-15T15:07:38;12.60;;;11.32;;
577;SDS011;275;48.492;9.214;2024-01-15T15:10:07;13.23;;;11.95;;
577;SDS011;275;48.492;9.214;2024-01-15T15:12:36;13.88;;;12.30;;
577;SDS011;275;48.492;9.214;2024-01-15T15:15:03;13.50;;;11.40;;
577;SDS011;275;48.492;9.214;2024-01-15T15:17:30;12.57;;;11.07;;
577;SDS011;275;48.492;9.214;2024-01-15T15:19:57;11.85;;;10.63;;
577;SDS011;275;48.492;9.214;2024-01-15T15:22:24;13.10;;;11.80;;
577;SDS011;275;48.492;9.214;2024-01-15T15:24:51;11.10;;;9.95;;
577;SDS011;275;48.492;9.214;2024-01-15T15:27:19;10.93;;;9.45;;
577;SDS011;275;48.492;9.214;2024-01-15T15:29:46;10.48;;;9.40;;
577;SDS011;275;48.492;9.214;2024-01-15T15:32:15;10.00;;;8.07;;
577;SDS011;275;48.492;9.214;2024-01-15T15:34:42;11.65;;;9.00;;